sensor_id;sensor_type;location;lat;lon;timestamp;P1;durP1;ratioP1;P2;durP2;ratioP2
15254;SDS011;7730;49.610;11.136;2023-04-03T00:00:41;2.88;;;1.70;;
15254;SDS011;7730;49.610;11.136;2023-04-03T00:03:08;2.87;;;1.80;;
15254;SDS011;7730;49.610;11.136;2023-04-03T00:05:35;3.15;;;1.80;;
15254;SDS011;7730;49.610;11.136;2023-04-03T00:08:02;3.57;;;1.90;;
15254;SDS011;7730;49.610;11.136;2023-04-03T00:10:32;2.85;;;1.77;;
15254;SDS011;7730;49.610;11.136;2023-04-03T00:12:59;3.85;;;1.85;;
15254;SDS011;7730;49.610;11.136;2023-04-03T00:15:27;2.80;;;1.73;;
15254;SDS011;7730;49.610;11.136;2023-04-03T00:17:55;3.30;;;1.80;;
15254;SDS011;7730;49.610;11.136;2023-04-03T00:20:22;2.63;;;1.80;;
15254;SDS011;7730;49.610;11.136;2023-04-03T00:22:49;2.60;;;1.63;;
15254;SDS011;7730;49.610;11.136;2023-04-03T00:25:16;4.03;;;1.67;;
15254;SDS011;7730;49.610;11.136;2023-04-03T00:27:43;2.88;;;1.83;;
15254;SDS011;7730;49.610;11.136;2023-04-03T00:30:11;2.25;;;1.75;;
15254;SDS011;7730;49.610;11.136;2023-04-03T00:32:40;3.58;;;1.85;;
15254;SDS011;7730;49.610;11.136;2023-04-03T00:35:08;3.73;;;1.70;;
15254;SDS011;7730;49.610;11.136;2023-04-03T00:37:35;3.00;;;1.83;;
15254;SDS011;7730;49.610;11.136;2023-04-03T00:40:02;3.00;;;1.80;;
15254;SDS011;7730;49.610;11.136;2023-04-03T00:42:30;5.00;;;2.03;;
15254;SDS011;7730;49.610;11.136;2023-04-03T00:47:44;2.67;;;1.90;;
15254;SDS011;7730;49.610;11.136;2023-04-03T00:50:11;3.03;;;1.90;;
15254;SDS011;7730;49.610;11.136;2023-04-03T00:52:38;3.42;;;2.00;;
15254;SDS011;7730;49.610;11.136;2023-04-03T00:55:06;4.93;;;1.90;;
15254;SDS011;7730;49.610;11.136;2023-04-03T00:57:35;5.03;;;1.90;;
15254;SDS011;7730;49.610;11.136;2023-04-03T01:00:03;3.17;;;1.90;;
15254;SDS011;7730;49.610;11.136;2023-04-03T01:02:32;2.93;;;1.70;;
15254;SDS011;7730;49.610;11.136;2023-04-03T01:05:00;4.07;;;1.83;;
15254;SDS011;7730;49.610;11.136;2023-04-03T01:07:29;2.97;;;2.00;;
15254;SDS011;7730;49.610;11.136;2023-04-03T01:09:59;3.13;;;1.90;;
15254;SDS011;7730;49.610;11.136;2023-04-03T01:12:27;2.03;;;1.70;;
15254;SDS011;7730;49.610;11.136;2023-04-03T01:14:54;3.63;;;1.90;;
15254;SDS011;7730;49.610;11.136;2023-04-03T01:17:32;2.58;;;1.80;;
15254;SDS011;7730;49.610;11.136;2023-04-03T01:22:48;3.50;;;1.63;;
15254;SDS011;7730;49.610;11.136;2023-04-03T01:25:21;4.45;;;1.98;;
15254;SDS011;7730;49.610;11.136;2023-04-03T01:27:48;2.63;;;1.80;;
15254;SDS011;7730;49.610;11.136;2023-04-03T01:30:16;3.92;;;1.77;;
15254;SDS011;7730;49.610;11.136;2023-04-03T01:32:45;2.33;;;1.70;;
15254;SDS011;7730;49.610;11.136;2023-04-03T01:35:12;2.20;;;1.60;;
15254;SDS011;7730;49.610;11.136;2023-04-03T01:37:39;3.63;;;1.70;;
15254;SDS011;7730;49.610;11.136;2023-04-03T01:40:07;3.13;;;1.90;;
15254;SDS011;7730;49.610;11.136;2023-04-03T01:42:34;4.30;;;2.00;;
15254;SDS011;7730;49.610;11.136;2023-04-03T01:45:01;2.92;;;1.80;;
15254;SDS011;7730;49.610;11.136;2023-04-03T01:47:28;2.50;;;1.80;;
15254;SDS011;7730;49.610;11.136;2023-04-03T01:49:56;3.27;;;1.70;;
15254;SDS011;7730;49.610;11.136;2023-04-03T01:52:23;3.47;;;1.80;;
15254;SDS011;7730;49.610;11.136;2023-04-03T01:54:50;3.55;;;1.85;;
15254;SDS011;7730;49.610;11.136;2023-04-03T01:57:17;3.47;;;1.70;;
15254;SDS011;7730;49.610;11.136;2023-04-03T01:59:44;3.33;;;1.70;;
15254;SDS011;7730;49.610;11.136;2023-04-03T02:02:11;4.27;;;1.90;;
15254;SDS011;7730;49.610;11.136;2023-04-03T02:04:39;4.83;;;1.80;;
15254;SDS011;7730;49.610;11.136;2023-04-03T02:07:08;4.93;;;2.10;;
15254;SDS011;7730;49.610;11.136;2023-04-03T02:09:35;6.77;;;1.90;;
15254;SDS011;7730;49.610;11.136;2023-04-03T02:12:02;4.50;;;1.77;;
15254;SDS011;7730;49.610;11.136;2023-04-03T02:14:29;6.13;;;2.00;;
15254;SDS011;7730;49.610;11.136;2023-04-03T02:16:56;6.10;;;2.10;;
15254;SDS011;7730;49.610;11.136;2023-04-03T02:19:23;5.60;;;2.10;;
15254;SDS011;7730;49.610;11.136;2023-04-03T02:21:50;5.40;;;2.20;;
15254;SDS011;7730;49.610;11.136;2023-04-03T02:24:18;4.63;;;2.17;;
15254;SDS011;7730;49.610;11.136;2023-04-03T02:26:45;5.63;;;2.00;;
15254;SDS011;7730;49.610;11.136;2023-04-03T02:29:12;6.47;;;2.40;;
15254;SDS011;7730;49.610;11.136;2023-04-03T02:31:39;5.97;;;2.20;;
15254;SDS011;7730;49.610;11.136;2023-04-03T02:34:06;8.10;;;2.20;;
15254;SDS011;7730;49.610;11.136;2023-04-03T02:36:33;5.85;;;2.10;;
15254;SDS011;7730;49.610;11.136;2023-04-03T02:39:00;6.20;;;2.08;;
15254;SDS011;7730;49.610;11.136;2023-04-03T02:41:29;5.57;;;2.23;;
15254;SDS011;7730;49.610;11.136;2023-04-03T02:43:59;3.95;;;2.20;;
15254;SDS011;7730;49.610;11.136;2023-04-03T02:46:26;6.10;;;2.10;;
15254;SDS011;7730;49.610;11.136;2023-04-03T02:48:53;4.22;;;2.00;;
15254;SDS011;7730;49.610;11.136;2023-04-03T02:51:21;6.25;;;2.15;;
15254;SDS011;7730;49.610;11.136;2023-04-03T02:53:48;6.05;;;2.17;;
15254;SDS011;7730;49.610;11.136;2023-04-03T02:56:15;7.38;;;2.22;;
15254;SDS011;7730;49.610;11.136;2023-04-03T02:58:44;5.13;;;2.40;;
15254;SDS011;7730;49.610;11.136;2023-04-03T03:01:11;6.67;;;2.60;;
15254;SDS011;7730;49.610;11.136;2023-04-03T03:03:38;7.82;;;2.50;;
15254;SDS011;7730;49.610;11.136;2023-04-03T03:06:06;5.30;;;2.35;;
15254;SDS011;7730;49.610;11.136;2023-04-03T03:08:34;6.90;;;2.40;;
15254;SDS011;7730;49.610;11.136;2023-04-03T03:11:01;5.03;;;2.30;;
15254;SDS011;7730;49.610;11.136;2023-04-03T03:13:28;4.80;;;2.40;;
15254;SDS011;7730;49.610;11.136;2023-04-03T03:15:57;4.73;;;2.20;;
15254;SDS011;7730;49.610;11.136;2023-04-03T03:18:24;5.32;;;2.28;;
15254;SDS011;7730;49.610;11.136;2023-04-03T03:20:51;4.32;;;2.20;;
15254;SDS011;7730;49.610;11.136;2023-04-03T03:23:19;7.22;;;2.38;;
15254;SDS011;7730;49.610;11.136;2023-04-03T03:25:46;3.80;;;2.10;;
15254;SDS011;7730;49.610;11.136;2023-04-03T03:28:13;5.70;;;2.30;;
15254;SDS011;7730;49.610;11.136;2023-04-03T03:30:40;4.47;;;2.27;;
15254;SDS011;7730;49.610;11.136;2023-04-03T03:33:08;6.55;;;2.45;;
15254;SDS011;7730;49.610;11.136;2023-04-03T03:35:35;6.03;;;2.40;;
15254;SDS011;7730;49.610;11.136;2023-04-03T03:38:02;6.97;;;2.30;;
15254;SDS011;7730;49.610;11.136;2023-04-03T03:40:29;6.27;;;2.37;;
15254;SDS011;7730;49.610;11.136;2023-04-03T03:42:56;6.63;;;2.40;;
15254;SDS011;7730;49.610;11.136;2023-04-03T03:45:23;7.33;;;2.47;;
15254;SDS011;7730;49.610;11.136;2023-04-03T03:47:50;5.57;;;2.23;;
15254;SDS011;7730;49.610;11.136;2023-04-03T03:50:19;6.50;;;2.40;;
15254;SDS011;7730;49.610;11.136;2023-04-03T03:52:46;7.40;;;2.50;;
15254;SDS011;7730;49.610;11.136;2023-04-03T03:55:13;6.97;;;2.40;;
15254;SDS011;7730;49.610;11.136;2023-04-03T03:57:40;5.30;;;2.10;;
15254;SDS011;7730;49.610;11.136;2023-04-03T04:00:07;7.20;;;2.40;;
15254;SDS011;7730;49.610;11.136;2023-04-03T04:02:34;7.47;;;2.17;;
15254;SDS011;7730;49.610;11.136;2023-04-03T04:05:01;6.17;;;2.40;;
15254;SDS011;7730;49.610;11.136;2023-04-03T04:07:30;6.87;;;2.30;;
15254;SDS011;7730;49.610;11.136;2023-04-03T04:09:57;6.93;;;2.30;;
15254;SDS011;7730;49.610;11.136;2023-04-03T04:12:24;5.80;;;2.40;;
15254;SDS011;7730;49.610;11.136;2023-04-03T04:14:51;7.87;;;2.70;;
15254;SDS011;7730;49.610;11.136;2023-04-03T04:17:18;6.47;;;2.30;;
15254;SDS011;7730;49.610;11.136;2023-04-03T04:19:45;6.25;;;2.45;;
15254;SDS011;7730;49.610;11.136;2023-04-03T04:22:12;6.60;;;2.20;;
15254;SDS011;7730;49.610;11.136;2023-04-03T04:24:40;9.93;;;2.60;;
15254;SDS011;7730;49.610;11.136;2023-04-03T04:27:07;7.87;;;2.40;;
15254;SDS011;7730;49.610;11.136;2023-04-03T04:29:34;6.70;;;2.37;;
15254;SDS011;7730;49.610;11.136;2023-04-03T04:32:02;7.53;;;2.40;;
15254;SDS011;7730;49.610;11.136;2023-04-03T04:34:30;7.30;;;2.30;;
15254;SDS011;7730;49.610;11.136;2023-04-03T04:36:57;5.90;;;2.20;;
15254;SDS011;7730;49.610;11.136;2023-04-03T04:41:53;6.80;;;2.40;;
15254;SDS011;7730;49.610;11.136;2023-04-03T04:44:20;5.50;;;2.10;;
15254;SDS011;7730;49.610;11.136;2023-04-03T04:46:47;6.90;;;2.20;;
15254;SDS011;7730;49.610;11.136;2023-04-03T04:49:14;5.13;;;2.17;;
15254;SDS011;7730;49.610;11.136;2023-04-03T04:51:41;5.97;;;2.30;;
15254;SDS011;7730;49.610;11.136;2023-04-03T04:54:08;7.77;;;2.77;;
15254;SDS011;7730;49.610;11.136;2023-04-03T04:56:35;5.83;;;2.20;;
15254;SDS011;7730;49.610;11.136;2023-04-03T04:59:04;5.97;;;2.20;;
15254;SDS011;7730;49.610;11.136;2023-04-03T05:01:31;5.07;;;2.00;;
15254;SDS011;7730;49.610;11.136;2023-04-03T05:03:58;5.70;;;2.00;;
15254;SDS011;7730;49.610;11.136;2023-04-03T05:06:25;6.90;;;2.33;;
15254;SDS011;7730;49.610;11.136;2023-04-03T05:08:52;6.30;;;2.50;;
15254;SDS011;7730;49.610;11.136;2023-04-03T05:11:19;9.50;;;3.30;;
15254;SDS011;7730;49.610;11.136;2023-04-03T05:13:46;7.90;;;2.40;;
15254;SDS011;7730;49.610;11.136;2023-04-03T05:16:14;5.10;;;2.10;;
15254;SDS011;7730;49.610;11.136;2023-04-03T05:18:41;7.23;;;2.40;;
15254;SDS011;7730;49.610;11.136;2023-04-03T05:21:08;7.77;;;2.20;;
15254;SDS011;7730;49.610;11.136;2023-04-03T05:23:35;6.23;;;2.20;;
15254;SDS011;7730;49.610;11.136;2023-04-03T05:26:02;6.97;;;2.13;;
15254;SDS011;7730;49.610;11.136;2023-04-03T05:28:29;6.70;;;2.43;;
15254;SDS011;7730;49.610;11.136;2023-04-03T05:30:57;6.37;;;2.20;;
15254;SDS011;7730;49.610;11.136;2023-04-03T05:33:26;6.03;;;2.07;;
15254;SDS011;7730;49.610;11.136;2023-04-03T05:35:53;4.97;;;2.05;;
15254;SDS011;7730;49.610;11.136;2023-04-03T05:38:20;6.97;;;2.20;;
15254;SDS011;7730;49.610;11.136;2023-04-03T05:40:47;8.07;;;2.80;;
15254;SDS011;7730;49.610;11.136;2023-04-03T05:43:14;11.73;;;4.40;;
15254;SDS011;7730;49.610;11.136;2023-04-03T05:45:42;8.00;;;2.47;;
15254;SDS011;7730;49.610;11.136;2023-04-03T05:48:09;6.20;;;2.23;;
15254;SDS011;7730;49.610;11.136;2023-04-03T05:50:37;8.90;;;2.33;;
15254;SDS011;7730;49.610;11.136;2023-04-03T05:53:06;6.23;;;2.43;;
15254;SDS011;7730;49.610;11.136;2023-04-03T05:55:34;6.28;;;2.22;;
15254;SDS011;7730;49.610;11.136;2023-04-03T05:58:01;5.73;;;2.07;;
15254;SDS011;7730;49.610;11.136;2023-04-03T06:00:28;6.53;;;2.23;;
15254;SDS011;7730;49.610;11.136;2023-04-03T06:02:55;6.57;;;2.20;;
15254;SDS011;7730;49.610;11.136;2023-04-03T06:05:22;6.07;;;2.30;;
15254;SDS011;7730;49.610;11.136;2023-04-03T06:07:50;4.47;;;2.20;;
15254;SDS011;7730;49.610;11.136;2023-04-03T06:10:17;8.37;;;2.40;;
15254;SDS011;7730;49.610;11.136;2023-04-03T06:12:45;6.80;;;2.30;;
15254;SDS011;7730;49.610;11.136;2023-04-03T06:15:12;6.77;;;2.50;;
15254;SDS011;7730;49.610;11.136;2023-04-03T06:17:39;8.18;;;2.70;;
15254;SDS011;7730;49.610;11.136;2023-04-03T06:20:07;6.35;;;2.42;;
15254;SDS011;7730;49.610;11.136;2023-04-03T06:22:34;8.32;;;2.63;;
15254;SDS011;7730;49.610;11.136;2023-04-03T06:25:03;6.63;;;2.60;;
15254;SDS011;7730;49.610;11.136;2023-04-03T06:27:31;6.53;;;2.40;;
15254;SDS011;7730;49.610;11.136;2023-04-03T06:29:58;6.67;;;2.40;;
15254;SDS011;7730;49.610;11.136;2023-04-03T06:32:25;6.43;;;2.40;;
15254;SDS011;7730;49.610;11.136;2023-04-03T06:34:52;5.93;;;2.50;;
15254;SDS011;7730;49.610;11.136;2023-04-03T06:37:21;6.93;;;2.42;;
15254;SDS011;7730;49.610;11.136;2023-04-03T06:39:51;7.20;;;2.67;;
15254;SDS011;7730;49.610;11.136;2023-04-03T06:42:19;5.55;;;2.28;;
15254;SDS011;7730;49.610;11.136;2023-04-03T06:44:46;8.13;;;3.30;;
15254;SDS011;7730;49.610;11.136;2023-04-03T06:47:13;10.23;;;3.08;;
15254;SDS011;7730;49.610;11.136;2023-04-03T06:49:40;6.17;;;2.57;;
15254;SDS011;7730;49.610;11.136;2023-04-03T06:52:08;6.97;;;2.60;;
15254;SDS011;7730;49.610;11.136;2023-04-03T06:54:37;6.67;;;2.60;;
15254;SDS011;7730;49.610;11.136;2023-04-03T06:57:04;7.75;;;3.00;;
15254;SDS011;7730;49.610;11.136;2023-04-03T06:59:33;5.77;;;2.70;;
15254;SDS011;7730;49.610;11.136;2023-04-03T07:02:00;7.43;;;2.60;;
15254;SDS011;7730;49.610;11.136;2023-04-03T07:04:27;7.43;;;2.80;;
15254;SDS011;7730;49.610;11.136;2023-04-03T07:06:54;7.97;;;3.00;;
15254;SDS011;7730;49.610;11.136;2023-04-03T07:09:21;6.33;;;2.70;;
15254;SDS011;7730;49.610;11.136;2023-04-03T07:11:48;9.77;;;3.10;;
15254;SDS011;7730;49.610;11.136;2023-04-03T07:14:15;4.55;;;2.53;;
15254;SDS011;7730;49.610;11.136;2023-04-03T07:16:43;6.47;;;2.77;;
15254;SDS011;7730;49.610;11.136;2023-04-03T07:19:10;6.90;;;2.70;;
15254;SDS011;7730;49.610;11.136;2023-04-03T07:21:37;7.70;;;2.75;;
15254;SDS011;7730;49.610;11.136;2023-04-03T07:24:06;7.47;;;2.80;;
15254;SDS011;7730;49.610;11.136;2023-04-03T07:26:33;5.93;;;2.43;;
15254;SDS011;7730;49.610;11.136;2023-04-03T07:29:01;5.53;;;2.60;;
15254;SDS011;7730;49.610;11.136;2023-04-03T07:31:28;7.87;;;2.63;;
15254;SDS011;7730;49.610;11.136;2023-04-03T07:33:56;7.43;;;2.63;;
15254;SDS011;7730;49.610;11.136;2023-04-03T07:36:23;7.63;;;2.60;;
15254;SDS011;7730;49.610;11.136;2023-04-03T07:38:50;6.10;;;2.47;;
15254;SDS011;7730;49.610;11.136;2023-04-03T07:41:18;7.88;;;2.70;;
15254;SDS011;7730;49.610;11.136;2023-04-03T07:43:47;6.00;;;2.33;;
15254;SDS011;7730;49.610;11.136;2023-04-03T07:46:15;7.30;;;2.67;;
15254;SDS011;7730;49.610;11.136;2023-04-03T07:48:43;6.57;;;2.33;;
15254;SDS011;7730;49.610;11.136;2023-04-03T07:51:12;7.28;;;2.63;;
15254;SDS011;7730;49.610;11.136;2023-04-03T07:53:39;7.03;;;2.70;;
15254;SDS011;7730;49.610;11.136;2023-04-03T07:56:07;7.67;;;2.67;;
15254;SDS011;7730;49.610;11.136;2023-04-03T07:58:34;9.73;;;2.72;;
15254;SDS011;7730;49.610;11.136;2023-04-03T08:01:01;5.75;;;2.47;;
15254;SDS011;7730;49.610;11.136;2023-04-03T08:03:29;9.07;;;2.80;;
15254;SDS011;7730;49.610;11.136;2023-04-03T08:06:00;7.17;;;2.63;;
15254;SDS011;7730;49.610;11.136;2023-04-03T08:08:29;8.57;;;3.17;;
15254;SDS011;7730;49.610;11.136;2023-04-03T08:10:58;7.43;;;2.83;;
15254;SDS011;7730;49.610;11.136;2023-04-03T08:13:25;8.07;;;2.80;;
15254;SDS011;7730;49.610;11.136;2023-04-03T08:15:52;8.98;;;2.83;;
15254;SDS011;7730;49.610;11.136;2023-04-03T08:18:22;6.97;;;2.50;;
15254;SDS011;7730;49.610;11.136;2023-04-03T08:20:50;7.25;;;2.60;;
15254;SDS011;7730;49.610;11.136;2023-04-03T08:23:18;7.37;;;2.50;;
15254;SDS011;7730;49.610;11.136;2023-04-03T08:25:46;8.37;;;2.60;;
15254;SDS011;7730;49.610;11.136;2023-04-03T08:28:13;7.77;;;2.83;;
15254;SDS011;7730;49.610;11.136;2023-04-03T08:30:40;7.40;;;2.60;;
15254;SDS011;7730;49.610;11.136;2023-04-03T08:33:07;7.68;;;2.70;;
15254;SDS011;7730;49.610;11.136;2023-04-03T08:35:37;6.20;;;2.30;;
15254;SDS011;7730;49.610;11.136;2023-04-03T08:38:05;7.78;;;2.35;;
15254;SDS011;7730;49.610;11.136;2023-04-03T08:40:32;6.35;;;2.30;;
15254;SDS011;7730;49.610;11.136;2023-04-03T08:43:03;5.60;;;2.33;;
15254;SDS011;7730;49.610;11.136;2023-04-03T08:45:37;5.27;;;2.30;;
15254;SDS011;7730;49.610;11.136;2023-04-03T08:48:11;7.28;;;2.58;;
15254;SDS011;7730;49.610;11.136;2023-04-03T08:50:39;5.93;;;2.10;;
15254;SDS011;7730;49.610;11.136;2023-04-03T08:53:10;6.28;;;2.33;;
15254;SDS011;7730;49.610;11.136;2023-04-03T08:55:39;5.85;;;2.30;;
15254;SDS011;7730;49.610;11.136;2023-04-03T08:58:10;6.93;;;2.30;;
15254;SDS011;7730;49.610;11.136;2023-04-03T09:00:40;7.43;;;2.28;;
15254;SDS011;7730;49.610;11.136;2023-04-03T09:03:11;6.90;;;2.20;;
15254;SDS011;7730;49.610;11.136;2023-04-03T09:05:39;7.35;;;2.30;;
15254;SDS011;7730;49.610;11.136;2023-04-03T09:08:12;6.53;;;2.20;;
15254;SDS011;7730;49.610;11.136;2023-04-03T09:10:41;6.22;;;2.10;;
15254;SDS011;7730;49.610;11.136;2023-04-03T09:13:11;4.33;;;1.90;;
15254;SDS011;7730;49.610;11.136;2023-04-03T09:15:40;6.07;;;2.38;;
15254;SDS011;7730;49.610;11.136;2023-04-03T09:18:10;6.63;;;2.30;;
15254;SDS011;7730;49.610;11.136;2023-04-03T09:20:41;6.75;;;2.50;;
15254;SDS011;7730;49.610;11.136;2023-04-03T09:23:15;6.53;;;2.17;;
15254;SDS011;7730;49.610;11.136;2023-04-03T09:25:43;4.90;;;2.00;;
15254;SDS011;7730;49.610;11.136;2023-04-03T09:28:12;7.05;;;2.40;;
15254;SDS011;7730;49.610;11.136;2023-04-03T09:30:39;5.67;;;2.10;;
15254;SDS011;7730;49.610;11.136;2023-04-03T09:33:07;6.03;;;2.50;;
15254;SDS011;7730;49.610;11.136;2023-04-03T09:35:34;3.90;;;2.10;;
15254;SDS011;7730;49.610;11.136;2023-04-03T09:38:14;6.77;;;1.97;;
15254;SDS011;7730;49.610;11.136;2023-04-03T09:40:43;5.43;;;2.30;;
15254;SDS011;7730;49.610;11.136;2023-04-03T09:43:22;5.53;;;2.20;;
15254;SDS011;7730;49.610;11.136;2023-04-03T09:45:49;6.10;;;2.40;;
15254;SDS011;7730;49.610;11.136;2023-04-03T09:48:18;5.95;;;2.30;;
15254;SDS011;7730;49.610;11.136;2023-04-03T09:50:56;5.30;;;2.40;;
15254;SDS011;7730;49.610;11.136;2023-04-03T09:53:28;4.73;;;2.20;;
15254;SDS011;7730;49.610;11.136;2023-04-03T09:55:56;7.23;;;2.60;;
15254;SDS011;7730;49.610;11.136;2023-04-03T09:58:26;5.25;;;2.22;;
15254;SDS011;7730;49.610;11.136;2023-04-03T10:00:54;5.78;;;2.20;;
15254;SDS011;7730;49.610;11.136;2023-04-03T10:03:23;5.53;;;2.33;;
15254;SDS011;7730;49.610;11.136;2023-04-03T10:05:51;5.53;;;2.20;;
15254;SDS011;7730;49.610;11.136;2023-04-03T10:08:20;5.33;;;2.20;;
15254;SDS011;7730;49.610;11.136;2023-04-03T10:11:01;6.47;;;2.40;;
15254;SDS011;7730;49.610;11.136;2023-04-03T10:13:32;7.13;;;2.27;;
15254;SDS011;7730;49.610;11.136;2023-04-03T10:16:01;4.90;;;2.10;;
15254;SDS011;7730;49.610;11.136;2023-04-03T10:18:30;5.00;;;2.20;;
15254;SDS011;7730;49.610;11.136;2023-04-03T10:20:59;7.03;;;2.33;;
15254;SDS011;7730;49.610;11.136;2023-04-03T10:23:30;6.13;;;2.20;;
15254;SDS011;7730;49.610;11.136;2023-04-03T10:26:02;5.57;;;2.13;;
15254;SDS011;7730;49.610;11.136;2023-04-03T10:28:39;5.75;;;2.20;;
15254;SDS011;7730;49.610;11.136;2023-04-03T10:31:10;6.95;;;2.17;;
15254;SDS011;7730;49.610;11.136;2023-04-03T10:33:45;5.67;;;2.20;;
15254;SDS011;7730;49.610;11.136;2023-04-03T10:36:17;6.53;;;2.25;;
15254;SDS011;7730;49.610;11.136;2023-04-03T10:38:48;5.68;;;2.42;;
15254;SDS011;7730;49.610;11.136;2023-04-03T10:41:20;5.32;;;2.10;;
15254;SDS011;7730;49.610;11.136;2023-04-03T10:43:53;6.30;;;2.25;;
15254;SDS011;7730;49.610;11.136;2023-04-03T10:46:23;6.30;;;2.23;;
15254;SDS011;7730;49.610;11.136;2023-04-03T10:48:55;7.05;;;2.30;;
15254;SDS011;7730;49.610;11.136;2023-04-03T10:51:25;6.07;;;2.35;;
15254;SDS011;7730;49.610;11.136;2023-04-03T10:53:56;5.85;;;2.17;;
15254;SDS011;7730;49.610;11.136;2023-04-03T10:56:27;4.85;;;2.20;;
15254;SDS011;7730;49.610;11.136;2023-04-03T10:58:58;7.68;;;2.33;;
15254;SDS011;7730;49.610;11.136;2023-04-03T11:01:29;6.40;;;2.35;;
15254;SDS011;7730;49.610;11.136;2023-04-03T11:03:59;6.97;;;2.50;;
15254;SDS011;7730;49.610;11.136;2023-04-03T11:06:30;5.70;;;2.33;;
15254;SDS011;7730;49.610;11.136;2023-04-03T11:08:59;8.23;;;2.55;;
15254;SDS011;7730;49.610;11.136;2023-04-03T11:11:29;7.00;;;2.40;;
15254;SDS011;7730;49.610;11.136;2023-04-03T11:14:00;4.60;;;2.00;;
15254;SDS011;7730;49.610;11.136;2023-04-03T11:16:28;4.32;;;2.40;;
15254;SDS011;7730;49.610;11.136;2023-04-03T11:18:57;6.57;;;2.40;;
15254;SDS011;7730;49.610;11.136;2023-04-03T11:21:27;5.78;;;2.05;;
15254;SDS011;7730;49.610;11.136;2023-04-03T11:23:56;4.63;;;2.05;;
15254;SDS011;7730;49.610;11.136;2023-04-03T11:26:24;4.78;;;2.20;;
15254;SDS011;7730;49.610;11.136;2023-04-03T11:28:56;8.68;;;2.67;;
15254;SDS011;7730;49.610;11.136;2023-04-03T11:31:36;7.28;;;2.60;;
15254;SDS011;7730;49.610;11.136;2023-04-03T11:34:08;6.00;;;2.00;;
15254;SDS011;7730;49.610;11.136;2023-04-03T11:36:38;4.60;;;1.85;;
15254;SDS011;7730;49.610;11.136;2023-04-03T11:39:07;5.05;;;2.20;;
15254;SDS011;7730;49.610;11.136;2023-04-03T11:41:36;4.55;;;2.20;;
15254;SDS011;7730;49.610;11.136;2023-04-03T11:44:05;5.25;;;2.00;;
15254;SDS011;7730;49.610;11.136;2023-04-03T11:46:50;3.50;;;1.98;;
15254;SDS011;7730;49.610;11.136;2023-04-03T11:52:03;5.18;;;2.00;;
15254;SDS011;7730;49.610;11.136;2023-04-03T11:54:47;8.07;;;2.65;;
15254;SDS011;7730;49.610;11.136;2023-04-03T12:00:00;5.40;;;2.00;;
15254;SDS011;7730;49.610;11.136;2023-04-03T12:02:39;5.45;;;2.22;;
15254;SDS011;7730;49.610;11.136;2023-04-03T12:05:25;5.93;;;2.00;;
15254;SDS011;7730;49.610;11.136;2023-04-03T12:10:34;2.92;;;1.85;;
15254;SDS011;7730;49.610;11.136;2023-04-03T12:13:12;7.50;;;2.10;;
15254;SDS011;7730;49.610;11.136;2023-04-03T12:15:50;5.68;;;2.10;;
15254;SDS011;7730;49.610;11.136;2023-04-03T12:18:36;3.80;;;1.92;;
15254;SDS011;7730;49.610;11.136;2023-04-03T12:21:06;5.72;;;1.90;;
15254;SDS011;7730;49.610;11.136;2023-04-03T12:23:34;4.70;;;1.88;;
15254;SDS011;7730;49.610;11.136;2023-04-03T12:26:05;4.20;;;2.00;;
15254;SDS011;7730;49.610;11.136;2023-04-03T12:28:38;5.10;;;1.90;;
15254;SDS011;7730;49.610;11.136;2023-04-03T12:31:05;4.82;;;2.15;;
15254;SDS011;7730;49.610;11.136;2023-04-03T12:33:38;3.85;;;1.90;;
15254;SDS011;7730;49.610;11.136;2023-04-03T12:36:11;4.30;;;2.08;;
15254;SDS011;7730;49.610;11.136;2023-04-03T12:38:52;4.97;;;1.88;;
15254;SDS011;7730;49.610;11.136;2023-04-03T12:41:26;4.72;;;2.08;;
15254;SDS011;7730;49.610;11.136;2023-04-03T12:43:59;4.22;;;1.92;;
15254;SDS011;7730;49.610;11.136;2023-04-03T12:46:28;3.88;;;1.90;;
15254;SDS011;7730;49.610;11.136;2023-04-03T12:49:01;6.40;;;2.25;;
15254;SDS011;7730;49.610;11.136;2023-04-03T12:51:30;5.97;;;2.28;;
15254;SDS011;7730;49.610;11.136;2023-04-03T12:54:01;5.60;;;2.10;;
15254;SDS011;7730;49.610;11.136;2023-04-03T12:56:30;7.00;;;1.92;;
15254;SDS011;7730;49.610;11.136;2023-04-03T12:59:13;5.22;;;2.00;;
15254;SDS011;7730;49.610;11.136;2023-04-03T13:01:41;4.60;;;1.98;;
15254;SDS011;7730;49.610;11.136;2023-04-03T13:04:10;6.00;;;1.95;;
15254;SDS011;7730;49.610;11.136;2023-04-03T13:06:39;5.95;;;2.30;;
15254;SDS011;7730;49.610;11.136;2023-04-03T13:09:06;7.75;;;2.28;;
15254;SDS011;7730;49.610;11.136;2023-04-03T13:11:46;5.95;;;2.05;;
15254;SDS011;7730;49.610;11.136;2023-04-03T13:14:14;5.53;;;2.10;;
15254;SDS011;7730;49.610;11.136;2023-04-03T13:16:43;4.45;;;1.88;;
15254;SDS011;7730;49.610;11.136;2023-04-03T13:19:20;4.95;;;1.88;;
15254;SDS011;7730;49.610;11.136;2023-04-03T13:21:49;6.50;;;2.55;;
15254;SDS011;7730;49.610;11.136;2023-04-03T13:24:19;3.85;;;1.80;;
15254;SDS011;7730;49.610;11.136;2023-04-03T13:26:46;5.65;;;2.10;;
15254;SDS011;7730;49.610;11.136;2023-04-03T13:29:19;4.65;;;1.95;;
15254;SDS011;7730;49.610;11.136;2023-04-03T13:31:47;4.60;;;1.88;;
15254;SDS011;7730;49.610;11.136;2023-04-03T13:34:20;7.22;;;2.00;;
15254;SDS011;7730;49.610;11.136;2023-04-03T13:36:54;4.30;;;2.05;;
15254;SDS011;7730;49.610;11.136;2023-04-03T13:39:22;5.28;;;1.90;;
15254;SDS011;7730;49.610;11.136;2023-04-03T13:41:50;7.40;;;2.22;;
15254;SDS011;7730;49.610;11.136;2023-04-03T13:44:24;4.03;;;1.95;;
15254;SDS011;7730;49.610;11.136;2023-04-03T13:46:53;4.45;;;1.95;;
15254;SDS011;7730;49.610;11.136;2023-04-03T13:49:27;4.07;;;1.90;;
15254;SDS011;7730;49.610;11.136;2023-04-03T13:51:56;5.70;;;2.20;;
15254;SDS011;7730;49.610;11.136;2023-04-03T13:54:24;3.65;;;1.85;;
15254;SDS011;7730;49.610;11.136;2023-04-03T13:56:56;5.22;;;1.92;;
15254;SDS011;7730;49.610;11.136;2023-04-03T13:59:25;3.20;;;1.80;;
15254;SDS011;7730;49.610;11.136;2023-04-03T14:01:54;5.05;;;2.00;;
15254;SDS011;7730;49.610;11.136;2023-04-03T14:04:23;6.30;;;2.08;;
15254;SDS011;7730;49.610;11.136;2023-04-03T14:06:52;5.90;;;1.95;;
15254;SDS011;7730;49.610;11.136;2023-04-03T14:09:19;4.75;;;2.00;;
15254;SDS011;7730;49.610;11.136;2023-04-03T14:11:47;3.35;;;1.85;;
15254;SDS011;7730;49.610;11.136;2023-04-03T14:14:16;6.13;;;2.03;;
15254;SDS011;7730;49.610;11.136;2023-04-03T14:16:44;5.35;;;2.10;;
15254;SDS011;7730;49.610;11.136;2023-04-03T14:19:16;3.10;;;1.60;;
15254;SDS011;7730;49.610;11.136;2023-04-03T14:21:45;5.22;;;1.95;;
15254;SDS011;7730;49.610;11.136;2023-04-03T14:24:12;3.75;;;1.90;;
15254;SDS011;7730;49.610;11.136;2023-04-03T14:26:39;4.45;;;1.90;;
15254;SDS011;7730;49.610;11.136;2023-04-03T14:29:09;4.88;;;1.90;;
15254;SDS011;7730;49.610;11.136;2023-04-03T14:31:37;4.28;;;1.80;;
15254;SDS011;7730;49.610;11.136;2023-04-03T14:34:04;3.20;;;1.80;;
15254;SDS011;7730;49.610;11.136;2023-04-03T14:36:31;4.53;;;1.88;;
15254;SDS011;7730;49.610;11.136;2023-04-03T14:39:00;5.22;;;1.90;;
15254;SDS011;7730;49.610;11.136;2023-04-03T14:41:27;5.28;;;2.10;;
15254;SDS011;7730;49.610;11.136;2023-04-03T14:43:54;7.53;;;2.40;;
15254;SDS011;7730;49.610;11.136;2023-04-03T14:46:22;6.10;;;2.00;;
15254;SDS011;7730;49.610;11.136;2023-04-03T14:48:51;5.50;;;1.70;;
15254;SDS011;7730;49.610;11.136;2023-04-03T14:51:18;6.07;;;1.88;;
15254;SDS011;7730;49.610;11.136;2023-04-03T14:53:45;4.28;;;1.85;;
15254;SDS011;7730;49.610;11.136;2023-04-03T14:56:14;5.85;;;2.10;;
15254;SDS011;7730;49.610;11.136;2023-04-03T14:58:42;4.00;;;1.80;;
15254;SDS011;7730;49.610;11.136;2023-04-03T15:01:10;5.32;;;1.75;;
15254;SDS011;7730;49.610;11.136;2023-04-03T15:03:39;3.97;;;1.80;;
15254;SDS011;7730;49.610;11.136;2023-04-03T15:06:06;5.75;;;2.00;;
15254;SDS011;7730;49.610;11.136;2023-04-03T15:08:33;3.55;;;1.85;;
15254;SDS011;7730;49.610;11.136;2023-04-03T15:11:00;5.35;;;1.83;;
15254;SDS011;7730;49.610;11.136;2023-04-03T15:13:28;3.40;;;1.60;;